Time;durP1;ratioP1;P1;durP2;ratioP2;P2;SDS_P1;SDS_P2;PMS_P1;PMS_P2;Temp;Humidity;BMP_temperature;BMP_pressure;BME280_temperature;BME280_humidity;BME280_pressure;Samples;Min_cycle;Max_cycle;Signal;HPM_P1;HPM_P2
2021/05/27 00:00:42;;;;;;;8.35;7.43;;;13.10;99.90;;;;;;2062831;28;20461;-68
2021/05/27 00:01:42;;;;;;;7.68;6.97;;;13.10;99.90;;;;;;2063647;28;20061;-69
2021/05/27 00:02:43;;;;;;;9.30;7.22;;;13.10;99.90;;;;;;2062251;28;20035;-69
2021/05/27 00:03:44;;;;;;;8.10;7.40;;;13.00;99.90;;;;;;2063344;28;20034;-69
2021/05/27 00:04:44;;;;;;;7.97;7.28;;;13.10;99.90;;;;;;2063355;28;20030;-69
2021/05/27 00:05:45;;;;;;;8.48;7.35;;;13.00;99.90;;;;;;2063375;28;20030;-69
2021/05/27 00:06:45;;;;;;;8.32;7.50;;;13.00;99.90;;;;;;2063281;28;20363;-69
2021/05/27 00:07:46;;;;;;;9.35;7.65;;;13.10;99.90;;;;;;2062655;28;20026;-69
2021/05/27 00:08:46;;;;;;;8.73;7.72;;;13.10;99.90;;;;;;2062841;28;20030;-69
2021/05/27 00:09:47;;;;;;;9.50;8.07;;;13.10;99.90;;;;;;2063877;28;20478;-69
2021/05/27 00:10:48;;;;;;;8.15;7.35;;;13.10;99.90;;;;;;2062513;28;20038;-69
2021/05/27 00:11:48;;;;;;;10.73;7.78;;;13.10;99.90;;;;;;2062891;28;20371;-69
2021/05/27 00:12:49;;;;;;;9.40;7.32;;;13.00;99.90;;;;;;2062587;28;20030;-69
2021/05/27 00:13:50;;;;;;;7.05;6.50;;;13.10;99.90;;;;;;2060950;28;20034;-69
2021/05/27 00:14:50;;;;;;;7.65;6.90;;;13.00;99.90;;;;;;2063115;28;20552;-69
2021/05/27 00:15:51;;;;;;;7.80;6.97;;;13.00;99.90;;;;;;2063504;28;20029;-69
2021/05/27 00:16:52;;;;;;;7.68;6.95;;;13.00;99.90;;;;;;2063103;28;20025;-69
2021/05/27 00:17:53;;;;;;;7.80;6.45;;;13.00;99.90;;;;;;2063432;28;20432;-69
2021/05/27 00:18:53;;;;;;;7.78;7.07;;;13.00;99.90;;;;;;2070517;28;20025;-69
2021/05/27 00:19:54;;;;;;;8.15;6.57;;;13.00;99.90;;;;;;2070701;28;20030;-69
2021/05/27 00:20:54;;;;;;;10.50;7.60;;;13.00;99.90;;;;;;2063535;28;20033;-69
2021/05/27 00:21:55;;;;;;;7.45;6.72;;;13.00;99.90;;;;;;2063396;28;20038;-68
2021/05/27 00:22:55;;;;;;;8.35;7.13;;;13.00;99.90;;;;;;2062846;28;20486;-69
2021/05/27 00:23:57;;;;;;;9.43;7.47;;;13.00;99.90;;;;;;2063014;28;20102;-69
2021/05/27 00:24:58;;;;;;;8.30;6.82;;;13.00;99.90;;;;;;2062570;28;20110;-69
2021/05/27 00:25:58;;;;;;;7.97;6.72;;;13.00;99.90;;;;;;2062635;28;20097;-69
2021/05/27 00:26:59;;;;;;;7.43;6.65;;;13.00;99.90;;;;;;2062858;28;20232;-69
2021/05/27 00:27:59;;;;;;;7.18;6.53;;;13.00;99.90;;;;;;2057540;28;20037;-68
2021/05/27 00:29:00;;;;;;;10.18;6.97;;;13.00;99.90;;;;;;2063599;28;20030;-68
2021/05/27 00:30:01;;;;;;;7.85;7.15;;;13.00;99.90;;;;;;2062819;28;20073;-69
2021/05/27 00:31:02;;;;;;;7.00;6.13;;;13.00;99.90;;;;;;2063033;28;20517;-69
2021/05/27 00:32:02;;;;;;;9.05;7.45;;;13.00;99.90;;;;;;2063084;28;20073;-69
2021/05/27 00:33:03;;;;;;;7.85;6.90;;;13.00;99.90;;;;;;2062700;28;20038;-69
2021/05/27 00:34:04;;;;;;;6.90;6.28;;;13.00;99.90;;;;;;2063038;28;20022;-69
2021/05/27 00:35:06;;;;;;;8.50;7.57;;;13.00;99.90;;;;;;2063257;28;20027;-68
2021/05/27 00:36:07;;;;;;;8.45;6.43;;;13.00;99.90;;;;;;2062675;28;20033;-69
2021/05/27 00:37:08;;;;;;;9.30;6.55;;;13.00;99.90;;;;;;2063370;28;20029;-68
2021/05/27 00:38:08;;;;;;;8.15;6.30;;;13.00;99.90;;;;;;2070424;28;20022;-69
2021/05/27 00:39:09;;;;;;;7.53;6.70;;;13.00;99.90;;;;;;2070798;28;20022;-69
2021/05/27 00:40:13;;;;;;;6.70;6.00;;;13.00;99.90;;;;;;2063214;28;20030;-69
2021/05/27 00:41:13;;;;;;;8.02;6.65;;;13.00;99.90;;;;;;2063286;28;20050;-68
2021/05/27 00:42:14;;;;;;;7.22;6.55;;;12.90;99.90;;;;;;2062667;28;20030;-69
2021/05/27 00:43:14;;;;;;;7.97;7.18;;;12.90;99.90;;;;;;2062813;28;20076;-68
2021/05/27 00:44:20;;;;;;;7.90;6.60;;;13.00;99.90;;;;;;2057123;28;20035;-69
2021/05/27 00:45:20;;;;;;;7.55;6.57;;;13.00;99.90;;;;;;2055030;28;20034;-69
2021/05/27 00:46:21;;;;;;;8.13;6.80;;;12.90;99.90;;;;;;2060399;28;20037;-69
2021/05/27 00:47:21;;;;;;;7.55;6.78;;;12.90;99.90;;;;;;2070756;28;20105;-69
2021/05/27 00:49:41;;;;;;;7.28;6.57;;;13.00;99.90;;;;;;2063292;28;20038;-69
2021/05/27 00:50:41;;;;;;;8.60;6.60;;;12.90;99.90;;;;;;2063272;28;20105;-69
2021/05/27 00:51:44;;;;;;;7.28;6.57;;;13.00;99.90;;;;;;2063398;28;20030;-69
2021/05/27 00:52:45;;;;;;;6.10;5.50;;;13.00;99.90;;;;;;2062326;28;20105;-69
2021/05/27 00:53:45;;;;;;;7.32;6.55;;;13.00;99.90;;;;;;2063309;28;20022;-69
2021/05/27 00:54:48;;;;;;;6.57;6.00;;;13.00;99.90;;;;;;2063052;28;20800;-69
2021/05/27 00:55:49;;;;;;;6.75;5.93;;;13.00;99.90;;;;;;2063187;28;20053;-69
2021/05/27 00:56:51;;;;;;;7.93;6.40;;;13.00;99.90;;;;;;2062504;28;20031;-69
2021/05/27 00:57:54;;;;;;;8.07;6.03;;;13.00;99.90;;;;;;2061672;28;20120;-69
2021/05/27 00:58:54;;;;;;;7.78;5.97;;;13.00;99.90;;;;;;2062994;28;20386;-69
2021/05/27 00:59:55;;;;;;;7.47;6.25;;;13.00;99.90;;;;;;2063266;28;20053;-69
2021/05/27 01:00:55;;;;;;;7.15;5.68;;;13.00;99.90;;;;;;2063333;28;20085;-69
2021/05/27 01:01:56;;;;;;;7.53;6.43;;;13.00;99.90;;;;;;2063310;28;20034;-68
2021/05/27 01:02:56;;;;;;;6.70;6.15;;;13.00;99.90;;;;;;2062480;28;20053;-69
2021/05/27 01:03:57;;;;;;;7.25;6.55;;;13.00;99.90;;;;;;2062691;28;20434;-69
2021/05/27 01:04:57;;;;;;;7.40;6.70;;;13.00;99.90;;;;;;2062140;28;20030;-68
2021/05/27 01:06:00;;;;;;;7.15;6.45;;;13.00;99.90;;;;;;2063318;28;20450;-69
2021/05/27 01:07:00;;;;;;;8.55;7.75;;;13.00;99.90;;;;;;2062768;28;20434;-68
2021/05/27 01:08:16;;;;;;;10.32;7.38;;;13.00;99.90;;;;;;2062770;28;20049;-69
2021/05/27 01:09:17;;;;;;;8.80;7.88;;;13.00;99.90;;;;;;2061038;28;20102;-69
2021/05/27 01:10:17;;;;;;;9.55;8.00;;;13.00;99.90;;;;;;2063040;28;20034;-69
2021/05/27 01:11:18;;;;;;;8.98;8.13;;;13.00;99.90;;;;;;2062909;28;20030;-69
2021/05/27 01:12:19;;;;;;;9.13;8.20;;;13.00;99.90;;;;;;2062617;28;20031;-68
2021/05/27 01:13:20;;;;;;;9.45;8.48;;;13.00;99.90;;;;;;2062736;28;20114;-69
2021/05/27 01:15:40;;;;;;;9.38;8.13;;;13.00;99.90;;;;;;2062249;28;20034;-69
2021/05/27 01:16:41;;;;;;;10.27;9.18;;;12.90;99.90;;;;;;2062922;28;20470;-69
2021/05/27 01:17:42;;;;;;;10.27;9.32;;;12.90;99.90;;;;;;2063241;28;20046;-68
2021/05/27 01:18:43;;;;;;;11.50;10.40;;;12.90;99.90;;;;;;2062853;28;20023;-68
2021/05/27 01:19:43;;;;;;;11.70;10.40;;;13.00;99.90;;;;;;2062471;28;20390;-69
2021/05/27 01:21:04;;;;;;;11.35;10.23;;;12.90;99.90;;;;;;2062241;28;20507;-69
2021/05/27 01:22:05;;;;;;;11.10;10.10;;;12.90;99.90;;;;;;2062427;28;20113;-69
2021/05/27 01:23:05;;;;;;;10.52;9.52;;;12.90;99.90;;;;;;2062794;28;20031;-69
2021/05/27 01:24:06;;;;;;;12.57;10.52;;;12.90;99.90;;;;;;2064430;28;20018;-69
2021/05/27 01:25:08;;;;;;;13.43;12.18;;;13.00;99.90;;;;;;2064386;28;20022;-69
2021/05/27 01:26:11;;;;;;;14.05;12.65;;;12.90;99.90;;;;;;2064665;28;20029;-69
2021/05/27 01:27:12;;;;;;;13.75;12.43;;;12.90;99.90;;;;;;2064355;28;20026;-69
2021/05/27 01:28:12;;;;;;;14.13;12.88;;;12.90;99.90;;;;;;2064768;28;20033;-69
2021/05/27 01:29:13;;;;;;;13.82;12.43;;;12.90;99.90;;;;;;2063669;28;20125;-69
2021/05/27 01:30:14;;;;;;;15.98;13.15;;;12.90;99.90;;;;;;2064868;28;20394;-69
2021/05/27 01:31:15;;;;;;;14.55;13.10;;;12.90;99.90;;;;;;2064104;28;20022;-69
2021/05/27 01:32:16;;;;;;;15.13;13.38;;;12.90;99.90;;;;;;2064319;28;20054;-69
2021/05/27 01:33:18;;;;;;;14.93;13.63;;;12.90;99.90;;;;;;2064307;28;20547;-69
2021/05/27 01:34:18;;;;;;;15.82;14.23;;;12.90;99.90;;;;;;2064386;28;20053;-69
2021/05/27 01:35:23;;;;;;;15.52;14.07;;;12.90;99.90;;;;;;2064555;28;20037;-69
2021/05/27 01:36:24;;;;;;;16.92;15.18;;;12.90;99.90;;;;;;2064569;28;20125;-69
2021/05/27 01:37:24;;;;;;;15.85;14.35;;;12.90;99.90;;;;;;2064619;28;20030;-69
2021/05/27 01:38:27;;;;;;;17.00;15.20;;;12.90;99.90;;;;;;2064352;28;20084;-69
2021/05/27 01:39:27;;;;;;;16.25;14.68;;;12.90;99.90;;;;;;2064526;28;20026;-69
2021/05/27 01:40:28;;;;;;;17.67;16.02;;;12.90;99.90;;;;;;2064593;28;20153;-69
2021/05/27 01:41:28;;;;;;;16.42;14.93;;;12.90;99.90;;;;;;2064472;28;20054;-69
2021/05/27 01:42:29;;;;;;;16.55;14.93;;;12.80;99.90;;;;;;2063230;28;20053;-69
2021/05/27 01:43:30;;;;;;;16.77;15.07;;;12.90;99.90;;;;;;2055853;28;20449;-69
2021/05/27 01:44:31;;;;;;;18.70;16.83;;;12.90;99.90;;;;;;2059385;28;20089;-69
2021/05/27 01:45:31;;;;;;;18.65;16.85;;;12.90;99.90;;;;;;2071766;28;20030;-69
2021/05/27 01:46:32;;;;;;;17.95;16.20;;;12.90;99.90;;;;;;2071565;28;20129;-69
2021/05/27 01:47:33;;;;;;;19.02;16.98;;;12.90;99.90;;;;;;2064500;28;20109;-69
2021/05/27 01:48:33;;;;;;;18.08;16.25;;;12.90;99.90;;;;;;2064478;28;20031;-69
2021/05/27 01:49:38;;;;;;;19.20;17.02;;;12.90;99.90;;;;;;2064686;28;20870;-69
2021/05/27 01:50:43;;;;;;;19.15;17.45;;;12.90;99.90;;;;;;2063771;28;20483;-69
2021/05/27 01:51:49;;;;;;;19.92;18.02;;;12.90;99.90;;;;;;2066572;28;20034;-69
2021/05/27 01:52:50;;;;;;;19.17;17.42;;;12.90;99.90;;;;;;2065559;28;20455;-69
2021/05/27 01:53:50;;;;;;;20.45;18.45;;;12.90;99.90;;;;;;2064283;28;20023;-69
2021/05/27 01:54:51;;;;;;;20.23;17.92;;;12.90;99.90;;;;;;2064643;28;20026;-69
2021/05/27 01:55:52;;;;;;;20.10;17.98;;;12.90;99.90;;;;;;2064966;28;20022;-69
2021/05/27 01:56:52;;;;;;;19.75;17.73;;;12.90;99.90;;;;;;2068185;28;20393;-69
2021/05/27 01:57:55;;;;;;;20.15;18.08;;;12.90;99.90;;;;;;2065690;28;20386;-69
2021/05/27 01:59:03;;;;;;;19.92;18.17;;;12.90;99.90;;;;;;2071191;28;20049;-69
2021/05/27 02:00:06;;;;;;;20.48;18.40;;;12.90;99.90;;;;;;2067654;28;20541;-69
2021/05/27 02:01:07;;;;;;;21.13;19.02;;;12.90;99.90;;;;;;2066556;28;20101;-69
2021/05/27 02:02:08;;;;;;;20.45;18.50;;;12.90;99.90;;;;;;2065442;28;20018;-69
2021/05/27 02:03:08;;;;;;;20.60;18.63;;;12.90;99.90;;;;;;2067857;28;20041;-69
2021/05/27 02:04:09;;;;;;;19.65;17.63;;;12.90;99.90;;;;;;2071242;28;20017;-70
2021/05/27 02:05:11;;;;;;;19.98;17.88;;;12.80;99.90;;;;;;2070202;28;20034;-69
2021/05/27 02:06:11;;;;;;;18.80;17.00;;;12.90;99.90;;;;;;2065647;28;20053;-69
2021/05/27 02:07:14;;;;;;;21.30;18.85;;;12.80;99.90;;;;;;2065203;28;20035;-70
2021/05/27 02:08:14;;;;;;;20.63;18.52;;;12.80;99.90;;;;;;2065392;28;20466;-69
2021/05/27 02:09:15;;;;;;;20.05;18.02;;;12.80;99.90;;;;;;2072601;28;20378;-69
2021/05/27 02:10:16;;;;;;;18.95;17.00;;;12.80;99.90;;;;;;2073185;28;20037;-69
2021/05/27 02:11:16;;;;;;;18.60;16.83;;;12.80;99.90;;;;;;2065408;28;20030;-69
2021/05/27 02:12:17;;;;;;;18.30;16.70;;;12.80;99.90;;;;;;2066712;28;20100;-69
2021/05/27 02:13:17;;;;;;;17.20;15.60;;;12.90;99.90;;;;;;2069302;28;20022;-69
2021/05/27 02:14:22;;;;;;;18.30;16.50;;;12.90;99.90;;;;;;2069793;28;20050;-69
2021/05/27 02:15:23;;;;;;;19.10;17.13;;;12.90;99.90;;;;;;2069078;28;20042;-69
2021/05/27 02:16:24;;;;;;;18.98;16.75;;;12.90;99.90;;;;;;2065449;28;20035;-69
2021/05/27 02:17:24;;;;;;;17.60;15.88;;;12.90;99.90;;;;;;2065019;28;20419;-70
2021/05/27 02:18:25;;;;;;;18.08;15.88;;;12.80;99.90;;;;;;2064953;28;20084;-69
2021/05/27 02:19:26;;;;;;;16.95;15.48;;;12.80;99.90;;;;;;2064619;28;20082;-69
2021/05/27 02:20:26;;;;;;;19.70;16.70;;;12.90;99.90;;;;;;2065815;28;20077;-69
2021/05/27 02:21:27;;;;;;;17.50;15.70;;;12.90;99.90;;;;;;2065319;28;20870;-69
2021/05/27 02:22:28;;;;;;;16.67;15.18;;;12.90;99.90;;;;;;2065252;28;20033;-70
2021/05/27 02:23:28;;;;;;;17.48;15.15;;;12.90;99.90;;;;;;2072685;28;20129;-69
2021/05/27 02:24:29;;;;;;;18.67;16.95;;;12.90;99.90;;;;;;2073376;28;20030;-69
2021/05/27 02:25:29;;;;;;;18.52;16.63;;;12.90;99.90;;;;;;2065178;28;20038;-69
2021/05/27 02:26:30;;;;;;;16.10;14.60;;;12.90;99.90;;;;;;2065377;28;20030;-69
2021/05/27 02:27:31;;;;;;;16.85;15.23;;;12.90;99.90;;;;;;2065333;28;20030;-69
2021/05/27 02:28:31;;;;;;;16.58;14.93;;;12.90;99.90;;;;;;2065732;28;20033;-69
2021/05/27 02:29:32;;;;;;;17.00;15.23;;;12.90;99.90;;;;;;2065196;28;20065;-69
2021/05/27 02:30:32;;;;;;;17.05;15.18;;;12.90;99.90;;;;;;2065471;28;20037;-69
2021/05/27 02:31:33;;;;;;;17.77;15.73;;;12.80;99.90;;;;;;2066758;28;20026;-69
2021/05/27 02:32:34;;;;;;;17.73;15.65;;;12.80;99.90;;;;;;2063003;28;20027;-69
2021/05/27 02:33:34;;;;;;;17.02;15.40;;;12.90;99.90;;;;;;2070326;28;20088;-69
2021/05/27 02:34:35;;;;;;;17.25;15.57;;;12.80;99.90;;;;;;2071312;28;20026;-70
2021/05/27 02:35:35;;;;;;;16.73;15.13;;;12.80;99.90;;;;;;2065627;28;20057;-69
2021/05/27 02:36:36;;;;;;;17.10;15.43;;;12.80;99.90;;;;;;2064618;28;20394;-69
2021/05/27 02:37:36;;;;;;;16.63;14.93;;;12.90;99.90;;;;;;2065070;28;20026;-69
2021/05/27 02:38:37;;;;;;;17.38;15.50;;;12.90;99.90;;;;;;2071946;28;20068;-70
2021/05/27 02:39:38;;;;;;;21.05;16.52;;;12.80;99.90;;;;;;2066858;28;20397;-69
2021/05/27 02:40:39;;;;;;;18.27;16.27;;;12.90;99.90;;;;;;2072010;28;20097;-70
2021/05/27 02:41:39;;;;;;;18.13;15.77;;;12.80;99.90;;;;;;2067081;28;20041;-69
2021/05/27 02:42:40;;;;;;;17.83;15.98;;;12.80;99.90;;;;;;2064844;28;20482;-69
2021/05/27 02:43:41;;;;;;;17.75;15.82;;;12.90;99.90;;;;;;2065699;28;20033;-69
2021/05/27 02:44:41;;;;;;;18.00;16.27;;;12.90;99.90;;;;;;2065246;28;20034;-69
2021/05/27 02:45:42;;;;;;;19.48;17.25;;;12.90;99.90;;;;;;2065226;28;20445;-69
2021/05/27 02:46:42;;;;;;;18.90;16.42;;;12.90;99.90;;;;;;2064826;28;20076;-69
2021/05/27 02:47:43;;;;;;;18.58;16.55;;;12.80;99.90;;;;;;2065290;28;20030;-69
2021/05/27 02:48:43;;;;;;;17.63;15.82;;;12.80;99.90;;;;;;2065287;28;20022;-69
2021/05/27 02:49:44;;;;;;;22.98;16.25;;;12.80;99.90;;;;;;2065082;28;20512;-69
2021/05/27 02:50:44;;;;;;;17.85;15.95;;;12.80;99.90;;;;;;2065331;28;20113;-69
2021/05/27 02:51:47;;;;;;;18.92;15.35;;;12.80;99.90;;;;;;2065405;28;20101;-69
2021/05/27 02:52:47;;;;;;;17.10;14.82;;;12.70;99.90;;;;;;2064655;28;20042;-69
2021/05/27 02:53:48;;;;;;;16.10;13.90;;;12.80;99.90;;;;;;2065446;28;20062;-69
2021/05/27 02:54:48;;;;;;;16.90;15.15;;;12.70;99.90;;;;;;2065009;28;20398;-69
2021/05/27 02:55:50;;;;;;;16.25;14.43;;;12.70;99.90;;;;;;2072719;28;20022;-69
2021/05/27 02:56:50;;;;;;;15.25;13.65;;;12.70;99.90;;;;;;2072650;28;20125;-69
2021/05/27 02:57:51;;;;;;;16.35;14.80;;;12.70;99.90;;;;;;2065222;28;20033;-69
2021/05/27 02:58:51;;;;;;;16.73;13.88;;;12.70;99.90;;;;;;2065126;28;20026;-69
2021/05/27 02:59:52;;;;;;;15.70;14.07;;;12.70;99.90;;;;;;2063832;28;20069;-69
2021/05/27 03:00:53;;;;;;;16.52;13.35;;;12.70;99.90;;;;;;2072609;28;20033;-69
2021/05/27 03:01:54;;;;;;;19.17;14.50;;;12.60;99.90;;;;;;2072033;28;20072;-69
2021/05/27 03:02:54;;;;;;;15.40;13.73;;;12.60;99.90;;;;;;2063588;28;20048;-69
2021/05/27 03:03:55;;;;;;;15.18;12.98;;;12.60;99.90;;;;;;2064427;28;20018;-69
2021/05/27 03:04:56;;;;;;;13.50;11.82;;;12.60;99.90;;;;;;2064328;28;20077;-69
2021/05/27 03:06:00;;;;;;;13.35;11.95;;;12.60;99.90;;;;;;2064206;28;20496;-70
2021/05/27 03:07:01;;;;;;;14.55;12.93;;;12.50;99.90;;;;;;2064292;28;20030;-69
2021/05/27 03:08:01;;;;;;;18.30;12.38;;;12.50;99.90;;;;;;2063454;28;20391;-69
2021/05/27 03:09:02;;;;;;;13.85;11.02;;;12.50;99.90;;;;;;2064006;28;20027;-69
2021/05/27 03:10:04;;;;;;;15.60;10.68;;;12.50;99.90;;;;;;2071420;28;20034;-69
2021/05/27 03:11:04;;;;;;;17.08;11.23;;;12.50;99.90;;;;;;2070738;28;20018;-69
2021/05/27 03:12:05;;;;;;;14.75;10.45;;;12.50;99.90;;;;;;2063591;28;20034;-69
2021/05/27 03:13:07;;;;;;;12.88;11.20;;;12.40;99.90;;;;;;2063369;28;20036;-69
2021/05/27 03:14:07;;;;;;;14.43;11.38;;;12.40;99.90;;;;;;2063720;28;20010;-69
2021/05/27 03:15:08;;;;;;;15.43;10.48;;;12.40;99.90;;;;;;2064120;28;20054;-69
2021/05/27 03:16:09;;;;;;;15.35;11.40;;;12.40;99.90;;;;;;2063833;28;20034;-69
2021/05/27 03:17:10;;;;;;;17.13;10.23;;;12.40;99.90;;;;;;2063822;28;20018;-69
2021/05/27 03:18:10;;;;;;;15.15;11.13;;;12.40;99.90;;;;;;2063627;28;20019;-69
2021/05/27 03:19:11;;;;;;;17.10;12.05;;;12.40;99.90;;;;;;2063432;28;20014;-70
2021/05/27 03:20:12;;;;;;;12.60;10.68;;;12.30;99.90;;;;;;2063112;28;20049;-69
2021/05/27 03:21:12;;;;;;;14.95;11.13;;;12.40;99.90;;;;;;2063586;28;20057;-69
2021/05/27 03:22:13;;;;;;;15.68;11.23;;;12.40;99.90;;;;;;2062630;28;20035;-69
2021/05/27 03:23:14;;;;;;;18.65;11.95;;;12.40;99.90;;;;;;2064132;28;20466;-69
2021/05/27 03:24:15;;;;;;;16.08;11.38;;;12.40;99.90;;;;;;2063659;28;20924;-69
2021/05/27 03:25:16;;;;;;;16.65;12.13;;;12.40;99.90;;;;;;2064141;28;20054;-69
2021/05/27 03:26:16;;;;;;;16.58;12.05;;;12.40;99.90;;;;;;2063526;28;20033;-69
2021/05/27 03:27:17;;;;;;;13.20;11.65;;;12.40;99.90;;;;;;2062651;28;20034;-69
2021/05/27 03:28:18;;;;;;;18.65;11.50;;;12.40;99.90;;;;;;2063539;28;20115;-69
2021/05/27 03:29:19;;;;;;;13.95;11.18;;;12.40;99.90;;;;;;2064059;28;20038;-69
2021/05/27 03:30:20;;;;;;;18.63;11.05;;;12.40;99.90;;;;;;2063568;28;20041;-69
2021/05/27 03:31:20;;;;;;;18.10;11.93;;;12.40;99.90;;;;;;2063960;28;20431;-69
2021/05/27 03:32:21;;;;;;;15.75;11.57;;;12.40;99.90;;;;;;2062651;28;20725;-69
2021/05/27 03:33:22;;;;;;;15.13;11.70;;;12.40;99.90;;;;;;2071051;28;20513;-69
2021/05/27 03:34:22;;;;;;;15.35;11.50;;;12.40;99.90;;;;;;2070709;28;20029;-69
2021/05/27 03:35:23;;;;;;;17.05;11.60;;;12.30;99.90;;;;;;2064251;28;20038;-69
2021/05/27 03:36:24;;;;;;;15.98;11.35;;;12.30;99.90;;;;;;2063432;28;20026;-69
2021/05/27 03:37:24;;;;;;;14.00;10.65;;;12.30;99.90;;;;;;2063335;28;20033;-69
2021/05/27 03:38:25;;;;;;;17.65;12.85;;;12.30;99.90;;;;;;2062713;28;20026;-69
2021/05/27 03:39:25;;;;;;;19.27;11.80;;;12.30;99.90;;;;;;2064026;28;20024;-69
2021/05/27 03:40:26;;;;;;;15.73;11.77;;;12.30;99.90;;;;;;2063049;28;20385;-69
2021/05/27 03:41:27;;;;;;;13.55;10.63;;;12.30;99.90;;;;;;2063757;28;20031;-69
2021/05/27 03:42:27;;;;;;;18.95;11.18;;;12.30;99.90;;;;;;2062821;28;20023;-69
2021/05/27 03:43:28;;;;;;;14.75;10.90;;;12.30;99.90;;;;;;2064094;28;20037;-69
2021/05/27 03:44:28;;;;;;;16.38;10.95;;;12.30;99.90;;;;;;2063489;28;20097;-69
2021/05/27 03:45:32;;;;;;;16.80;11.52;;;12.30;99.90;;;;;;2063400;28;20121;-69
2021/05/27 03:46:32;;;;;;;16.58;10.82;;;12.30;99.90;;;;;;2063187;28;20030;-69
2021/05/27 03:47:33;;;;;;;17.60;11.57;;;12.30;99.90;;;;;;2063660;28;20023;-69
2021/05/27 03:48:34;;;;;;;17.33;10.77;;;12.40;99.90;;;;;;2063753;28;20073;-69
2021/05/27 03:49:34;;;;;;;16.63;11.00;;;12.30;99.90;;;;;;2063104;28;20422;-69
2021/05/27 03:50:35;;;;;;;17.63;10.68;;;12.30;99.90;;;;;;2063706;28;20061;-69
2021/05/27 03:51:36;;;;;;;15.77;10.70;;;12.30;99.90;;;;;;2063504;28;20402;-69
2021/05/27 03:52:37;;;;;;;16.45;10.82;;;12.30;99.90;;;;;;2066124;28;20057;-69
2021/05/27 03:53:38;;;;;;;14.70;10.57;;;12.30;99.90;;;;;;2070133;28;20021;-69
2021/05/27 03:54:39;;;;;;;16.58;10.32;;;12.30;99.90;;;;;;2072243;28;20058;-69
2021/05/27 03:55:39;;;;;;;19.13;10.40;;;12.30;99.90;;;;;;2070925;28;20030;-69
2021/05/27 03:56:40;;;;;;;12.48;10.55;;;12.30;99.90;;;;;;2063769;28;20026;-69
2021/05/27 03:57:41;;;;;;;18.33;11.02;;;12.20;99.90;;;;;;2062660;28;20037;-69
2021/05/27 04:00:46;;;;;;;18.27;11.10;;;12.30;99.90;;;;;;2063535;28;20054;-69
2021/05/27 04:01:22;;;;;;;13.80;10.15;;;12.30;99.90;;;;;;2054983;28;20035;-69
2021/05/27 04:02:22;;;;;;;15.70;10.23;;;12.30;99.90;;;;;;2058238;28;20042;-69
2021/05/27 04:03:23;;;;;;;13.07;10.23;;;12.30;99.90;;;;;;2063475;28;20069;-69
2021/05/27 04:07:11;;;;;;;16.95;9.65;;;12.30;99.90;;;;;;2063729;28;20026;-69
2021/05/27 04:08:12;;;;;;;18.92;10.13;;;12.20;99.90;;;;;;2070638;28;20037;-69
2021/05/27 04:09:13;;;;;;;15.73;9.40;;;12.20;99.90;;;;;;2077477;28;20025;-69
2021/05/27 04:10:14;;;;;;;17.65;10.40;;;12.30;99.90;;;;;;2063216;28;20064;-69
2021/05/27 04:11:14;;;;;;;16.25;9.73;;;12.20;99.90;;;;;;2070981;28;20037;-69
2021/05/27 04:13:33;;;;;;;14.35;10.00;;;12.30;99.90;;;;;;2063496;28;20030;-69
2021/05/27 04:14:34;;;;;;;19.58;11.38;;;12.20;99.90;;;;;;2063279;28;20054;-69
2021/05/27 04:15:36;;;;;;;16.00;10.60;;;12.30;99.90;;;;;;2063410;28;20031;-69
2021/05/27 04:16:37;;;;;;;16.30;9.88;;;12.20;99.90;;;;;;2063412;28;20394;-69
2021/05/27 04:17:38;;;;;;;13.32;10.38;;;12.30;99.90;;;;;;2063829;28;20046;-69
2021/05/27 04:18:38;;;;;;;15.15;10.52;;;12.20;99.90;;;;;;2070544;28;20553;-69
2021/05/27 04:19:39;;;;;;;14.90;10.25;;;12.30;99.90;;;;;;2070965;28;20044;-69
2021/05/27 04:20:51;;;;;;;14.00;10.27;;;12.30;99.90;;;;;;2063259;28;20038;-69
2021/05/27 04:21:51;;;;;;;17.85;11.15;;;12.30;99.90;;;;;;2063104;28;20026;-69
2021/05/27 04:22:53;;;;;;;19.63;11.30;;;12.30;99.90;;;;;;2062954;28;20096;-69
2021/05/27 04:23:54;;;;;;;18.00;10.85;;;12.30;99.90;;;;;;2063247;28;20026;-69
2021/05/27 04:24:54;;;;;;;16.63;10.40;;;12.30;99.90;;;;;;2063374;28;20022;-69
2021/05/27 04:25:55;;;;;;;15.98;10.98;;;12.20;99.90;;;;;;2063567;28;20070;-69
2021/05/27 04:26:55;;;;;;;15.80;10.70;;;12.30;99.90;;;;;;2063194;28;20030;-70
2021/05/27 04:27:58;;;;;;;16.70;9.80;;;12.20;99.90;;;;;;2063436;28;20022;-69
2021/05/27 04:28:59;;;;;;;16.60;10.27;;;12.30;99.90;;;;;;2063368;28;20482;-69
2021/05/27 04:30:12;;;;;;;15.75;9.40;;;12.20;99.90;;;;;;2059898;28;20106;-69
2021/05/27 04:31:17;;;;;;;18.10;10.32;;;12.30;99.90;;;;;;2057068;28;20038;-69
2021/05/27 04:33:43;;;;;;;14.85;10.15;;;12.20;99.90;;;;;;2063339;28;20463;-70
2021/05/27 04:34:43;;;;;;;18.58;10.30;;;12.20;99.90;;;;;;2062620;28;20049;-70
2021/05/27 04:35:44;;;;;;;13.35;9.35;;;12.20;99.90;;;;;;2062347;28;20027;-69
2021/05/27 04:36:44;;;;;;;16.42;10.10;;;12.20;99.90;;;;;;2063097;28;20114;-69
2021/05/27 04:37:45;;;;;;;15.30;8.63;;;12.20;99.90;;;;;;2063524;28;20050;-69
2021/05/27 04:38:47;;;;;;;15.98;9.20;;;12.20;99.90;;;;;;2063277;28;20081;-69
2021/05/27 04:39:48;;;;;;;16.98;9.23;;;12.20;99.90;;;;;;2063153;28;20105;-69
2021/05/27 04:40:48;;;;;;;14.88;8.70;;;12.20;99.90;;;;;;2063344;28;20081;-69
2021/05/27 04:41:49;;;;;;;16.05;10.05;;;12.20;99.90;;;;;;2063236;28;20475;-69
2021/05/27 04:42:49;;;;;;;14.88;8.93;;;12.20;99.90;;;;;;2062462;28;20022;-69
2021/05/27 04:43:54;;;;;;;15.40;9.30;;;12.20;99.90;;;;;;2062976;28;20022;-69
2021/05/27 04:44:54;;;;;;;13.05;9.35;;;12.10;99.90;;;;;;2062879;28;20014;-69
2021/05/27 04:46:01;;;;;;;15.23;10.23;;;12.10;99.90;;;;;;2063153;28;20023;-69
2021/05/27 04:47:02;;;;;;;12.95;9.10;;;12.20;99.90;;;;;;2062992;28;20472;-69
2021/05/27 04:48:04;;;;;;;14.43;10.02;;;12.10;99.90;;;;;;2062575;28;20050;-69
2021/05/27 04:49:05;;;;;;;15.00;9.90;;;12.20;99.90;;;;;;2063117;28;20026;-69
2021/05/27 04:50:07;;;;;;;14.80;10.32;;;12.10;99.90;;;;;;2060390;28;20058;-69
2021/05/27 04:51:08;;;;;;;13.50;10.52;;;12.10;99.90;;;;;;2063235;28;20034;-69
2021/05/27 04:52:08;;;;;;;14.55;9.95;;;12.10;99.90;;;;;;2062484;28;20025;-69
2021/05/27 04:53:09;;;;;;;18.77;10.65;;;12.10;99.90;;;;;;2063061;28;20538;-69
2021/05/27 04:54:10;;;;;;;16.80;11.05;;;12.10;99.90;;;;;;2062919;28;20022;-69
2021/05/27 04:55:13;;;;;;;14.45;10.80;;;12.10;99.90;;;;;;2063121;28;20048;-69
2021/05/27 04:56:14;;;;;;;16.85;10.70;;;12.10;99.90;;;;;;2064387;28;20101;-69
2021/05/27 04:57:14;;;;;;;17.35;11.20;;;12.10;99.90;;;;;;2065388;28;20010;-69
2021/05/27 04:58:15;;;;;;;15.88;11.55;;;12.10;99.90;;;;;;2064508;28;20105;-69
2021/05/27 04:59:16;;;;;;;14.40;11.27;;;12.10;99.90;;;;;;2064904;28;20038;-69
2021/05/27 05:00:20;;;;;;;12.80;9.63;;;12.00;99.90;;;;;;2072029;28;20029;-69
2021/05/27 05:01:22;;;;;;;15.30;9.82;;;12.10;99.90;;;;;;2070194;28;20046;-69
2021/05/27 05:02:22;;;;;;;14.60;9.60;;;12.10;99.90;;;;;;2063149;28;20049;-69
2021/05/27 05:03:23;;;;;;;15.70;10.55;;;12.10;99.90;;;;;;2063953;28;20042;-69
2021/05/27 05:04:23;;;;;;;15.18;9.73;;;12.00;99.90;;;;;;2063810;28;20041;-70
2021/05/27 05:05:26;;;;;;;16.95;10.95;;;12.00;99.90;;;;;;2072592;28;20068;-70
2021/05/27 05:06:26;;;;;;;13.95;9.35;;;12.00;99.90;;;;;;2070533;28;20552;-69
2021/05/27 05:07:27;;;;;;;11.80;9.98;;;12.00;99.90;;;;;;2063628;28;20073;-69
2021/05/27 05:08:27;;;;;;;17.45;10.23;;;12.00;99.90;;;;;;2061889;28;20026;-69
2021/05/27 05:09:28;;;;;;;12.80;9.52;;;12.00;99.90;;;;;;2064793;28;20022;-69
2021/05/27 05:10:29;;;;;;;16.95;9.65;;;12.00;99.90;;;;;;2064631;28;20045;-69
2021/05/27 05:11:30;;;;;;;14.40;9.77;;;12.00;99.90;;;;;;2064970;28;20526;-70
2021/05/27 05:12:30;;;;;;;13.23;9.57;;;12.00;99.90;;;;;;2064682;28;20382;-69
2021/05/27 05:13:31;;;;;;;14.73;8.63;;;12.00;99.90;;;;;;2064627;28;20028;-70
2021/05/27 05:14:31;;;;;;;13.40;8.90;;;12.00;99.90;;;;;;2064309;28;20046;-69
2021/05/27 05:15:35;;;;;;;14.15;8.85;;;12.00;99.90;;;;;;2063098;28;20117;-69
2021/05/27 05:16:35;;;;;;;13.75;8.63;;;12.00;99.90;;;;;;2063324;28;20463;-69
2021/05/27 05:17:36;;;;;;;10.73;7.85;;;12.00;99.90;;;;;;2063679;28;20386;-69
2021/05/27 05:18:36;;;;;;;13.30;8.18;;;12.00;99.90;;;;;;2063710;28;20502;-69
2021/05/27 05:19:37;;;;;;;12.07;8.15;;;12.00;99.90;;;;;;2064176;28;20097;-69
2021/05/27 05:20:43;;;;;;;10.60;8.25;;;12.00;99.90;;;;;;2063113;28;20022;-70
2021/05/27 05:21:43;;;;;;;12.90;8.40;;;12.00;99.90;;;;;;2064022;28;20118;-70
2021/05/27 05:22:44;;;;;;;13.35;8.80;;;12.00;99.90;;;;;;2062749;28;20030;-70